createdAt,value
2023-03-02T00:01:38.189Z,21.20
2023-03-02T00:04:13.437Z,23.00
2023-03-02T00:06:46.245Z,23.10
2023-03-02T00:09:19.988Z,22.60
2023-03-02T00:11:53.343Z,22.30
2023-03-02T00:14:26.877Z,20.50
2023-03-02T00:35:42.048Z,21.80
2023-03-02T00:38:15.730Z,22.70
2023-03-02T00:40:49.340Z,24.20
2023-03-02T00:43:27.431Z,24.60
2023-03-02T00:46:00.570Z,25.30
2023-03-02T00:48:34.225Z,26.40
2023-03-02T00:51:07.691Z,30.60
2023-03-02T00:53:43.522Z,34.10
2023-03-02T00:56:17.572Z,33.00
2023-03-02T00:58:52.551Z,28.20
2023-03-02T01:01:25.514Z,27.20
2023-03-02T01:03:59.236Z,27.40
2023-03-02T01:06:32.535Z,24.70
2023-03-02T01:09:05.896Z,25.30
2023-03-02T01:11:44.632Z,23.90
2023-03-02T01:14:18.844Z,28.20
2023-03-02T01:16:51.595Z,32.20
2023-03-02T01:19:29.433Z,30.00
2023-03-02T01:22:02.517Z,29.10
2023-03-02T01:24:35.713Z,26.30
2023-03-02T01:27:09.189Z,26.70
2023-03-02T01:29:42.749Z,26.00
2023-03-02T01:32:16.707Z,24.60
2023-03-02T01:51:26.836Z,24.30
2023-03-02T01:54:03.654Z,22.70
2023-03-02T01:56:37.840Z,20.80
2023-03-02T01:59:11.775Z,22.10
2023-03-02T02:01:45.880Z,21.20
2023-03-02T02:04:25.399Z,24.80
2023-03-02T02:07:01.204Z,22.70
2023-03-02T02:09:38.786Z,22.60
2023-03-02T02:12:17.276Z,26.10
2023-03-02T02:14:50.023Z,24.20
2023-03-02T02:17:24.262Z,23.10
2023-03-02T02:20:08.271Z,23.70
2023-03-02T02:22:48.909Z,22.80
2023-03-02T02:25:27.941Z,24.50
2023-03-02T02:28:03.301Z,26.70
2023-03-02T02:30:36.386Z,24.30
2023-03-02T02:33:09.539Z,24.70
2023-03-02T02:53:34.655Z,29.10
2023-03-02T02:56:09.064Z,26.70
2023-03-02T02:58:46.142Z,27.00
2023-03-02T03:01:20.260Z,27.30
2023-03-02T03:03:55.429Z,27.50
2023-03-02T03:06:38.569Z,27.50
2023-03-02T03:09:13.334Z,29.40
2023-03-02T03:11:55.333Z,28.40
2023-03-02T03:14:30.674Z,30.20
2023-03-02T03:17:03.718Z,28.40
2023-03-02T03:19:37.483Z,29.40
2023-03-02T03:22:12.217Z,29.00
2023-03-02T03:24:48.167Z,28.70
2023-03-02T03:27:21.521Z,27.70
2023-03-02T03:29:55.753Z,26.90
2023-03-02T03:32:35.854Z,25.40
2023-03-02T03:35:11.855Z,24.60
2023-03-02T03:37:46.033Z,22.80
2023-03-02T03:40:34.524Z,20.90
2023-03-02T03:43:07.745Z,21.50
2023-03-02T03:45:51.681Z,20.90
2023-03-02T03:48:25.849Z,21.80
2023-03-02T03:50:59.567Z,22.90
2023-03-02T03:53:34.566Z,22.00
2023-03-02T03:56:08.775Z,22.60
2023-03-02T03:58:42.127Z,24.80
2023-03-02T04:01:15.150Z,21.90
2023-03-02T04:03:48.649Z,21.40
2023-03-02T04:06:24.756Z,21.00
2023-03-02T04:08:58.543Z,22.20
2023-03-02T04:11:31.727Z,22.90
2023-03-02T04:14:04.772Z,23.60
2023-03-02T04:16:38.129Z,24.10
2023-03-02T04:19:12.126Z,23.70
2023-03-02T04:21:49.387Z,21.70
2023-03-02T04:24:24.713Z,23.60
2023-03-02T04:27:01.316Z,23.60
2023-03-02T04:29:34.785Z,24.20
2023-03-02T04:32:09.929Z,24.50
2023-03-02T04:34:44.788Z,22.80
2023-03-02T04:37:18.207Z,22.60
2023-03-02T04:39:53.136Z,24.70
2023-03-02T04:42:27.428Z,23.50
2023-03-02T04:45:00.324Z,23.60
2023-03-02T04:47:33.374Z,23.40
2023-03-02T04:50:07.744Z,24.00
2023-03-02T04:52:46.598Z,23.50
2023-03-02T04:55:21.521Z,21.60
2023-03-02T04:57:54.272Z,24.30
2023-03-02T05:00:29.068Z,23.60
2023-03-02T05:03:01.669Z,24.90
2023-03-02T05:05:36.582Z,23.20
2023-03-02T05:08:09.586Z,23.00
2023-03-02T05:10:46.126Z,23.80
2023-03-02T05:13:19.903Z,24.50
2023-03-02T05:15:53.203Z,24.10
2023-03-02T05:18:26.936Z,25.90
2023-03-02T05:20:59.905Z,25.30
2023-03-02T05:23:32.861Z,24.70
2023-03-02T05:26:08.159Z,24.10
2023-03-02T05:28:43.066Z,23.30
2023-03-02T05:31:18.029Z,24.90
2023-03-02T05:33:51.359Z,26.60
2023-03-02T05:36:24.749Z,25.70
2023-03-02T05:38:57.454Z,25.10
2023-03-02T05:41:30.466Z,25.60
2023-03-02T05:44:03.147Z,23.60
2023-03-02T05:46:38.170Z,23.60
2023-03-02T05:49:10.925Z,23.90
2023-03-02T05:51:43.634Z,25.90
2023-03-02T05:54:16.840Z,22.10
2023-03-02T05:56:50.394Z,25.20
2023-03-02T05:59:23.245Z,22.60
2023-03-02T06:01:59.234Z,23.60
2023-03-02T06:04:32.576Z,21.90
2023-03-02T06:07:05.870Z,21.20
2023-03-02T06:09:40.613Z,21.00
2023-03-02T06:12:13.604Z,22.90
2023-03-02T06:14:49.695Z,20.30
2023-03-02T06:17:22.571Z,20.80
2023-03-02T06:19:55.480Z,19.90
2023-03-02T06:22:29.108Z,17.60
2023-03-02T06:25:02.067Z,17.70
2023-03-02T06:27:35.198Z,20.10
2023-03-02T06:30:10.879Z,18.50
2023-03-02T06:32:43.765Z,19.40
2023-03-02T06:35:16.809Z,19.10
2023-03-02T06:37:49.905Z,16.10
2023-03-02T06:40:23.501Z,15.80
2023-03-02T06:42:57.437Z,16.40
2023-03-02T06:45:34.170Z,15.40
2023-03-02T06:48:07.752Z,15.40
2023-03-02T06:50:41.079Z,15.80
2023-03-02T06:53:15.913Z,16.50
2023-03-02T06:55:51.483Z,14.50
2023-03-02T06:58:25.048Z,14.80
2023-03-02T07:00:58.343Z,14.80
2023-03-02T07:03:36.338Z,14.50
2023-03-02T07:06:09.414Z,12.80
2023-03-02T07:08:42.490Z,12.40
2023-03-02T07:11:15.384Z,13.30
2023-03-02T07:13:48.377Z,12.60
2023-03-02T07:16:21.204Z,10.80
2023-03-02T07:18:54.918Z,11.00
2023-03-02T07:21:28.045Z,10.80
2023-03-02T07:24:00.890Z,11.00
2023-03-02T07:26:34.104Z,10.60
2023-03-02T07:29:07.726Z,11.30
2023-03-02T07:31:41.024Z,9.90
2023-03-02T07:34:15.732Z,11.30
2023-03-02T07:36:49.378Z,10.30
2023-03-02T07:39:32.211Z,11.10
2023-03-02T07:42:07.383Z,10.60
2023-03-02T07:44:40.703Z,8.90
2023-03-02T07:47:13.838Z,9.30
2023-03-02T07:49:46.677Z,8.40
2023-03-02T07:52:19.393Z,7.90
2023-03-02T07:54:52.110Z,7.60
2023-03-02T07:57:24.855Z,8.90
2023-03-02T07:59:58.736Z,8.10
2023-03-02T08:02:33.808Z,8.50
2023-03-02T08:05:09.178Z,6.90
2023-03-02T08:07:43.220Z,8.20
2023-03-02T08:10:16.440Z,9.50
2023-03-02T08:12:49.270Z,8.40
2023-03-02T08:15:22.303Z,10.60
2023-03-02T08:17:55.359Z,9.20
2023-03-02T08:20:31.417Z,11.00
2023-03-02T08:23:08.304Z,9.90
2023-03-02T08:25:46.371Z,9.40
2023-03-02T08:28:19.655Z,10.40
2023-03-02T08:30:59.123Z,9.30
2023-03-02T08:33:32.201Z,8.30
2023-03-02T08:36:06.884Z,7.20
2023-03-02T08:38:39.682Z,7.70
2023-03-02T08:41:14.534Z,7.00
2023-03-02T08:43:47.208Z,8.00
2023-03-02T08:46:20.609Z,7.00
2023-03-02T08:48:53.738Z,8.30
2023-03-02T08:51:27.194Z,7.50
2023-03-02T08:54:01.037Z,5.70
2023-03-02T08:56:36.214Z,5.80
2023-03-02T08:59:11.076Z,5.70
2023-03-02T09:01:44.089Z,5.80
2023-03-02T09:04:18.117Z,5.60
2023-03-02T09:06:51.838Z,5.30
2023-03-02T09:09:24.536Z,5.70
2023-03-02T09:11:57.173Z,6.60
2023-03-02T09:14:30.334Z,5.50
2023-03-02T09:17:04.345Z,6.10
2023-03-02T09:19:44.252Z,6.20
2023-03-02T09:22:18.056Z,5.40
2023-03-02T09:24:51.322Z,5.00
2023-03-02T09:27:24.653Z,4.40
2023-03-02T09:29:57.370Z,4.70
2023-03-02T09:32:30.358Z,5.00
2023-03-02T09:35:03.538Z,6.80
2023-03-02T09:37:42.271Z,5.10
2023-03-02T09:40:29.089Z,5.20
2023-03-02T09:43:28.582Z,5.20
2023-03-02T09:46:07.839Z,6.30
2023-03-02T09:48:48.086Z,6.30
2023-03-02T09:51:32.478Z,4.50
2023-03-02T09:54:09.613Z,5.00
2023-03-02T09:56:44.202Z,4.70
2023-03-02T09:59:24.730Z,5.30
2023-03-02T10:02:02.702Z,6.80
2023-03-02T10:04:38.928Z,5.10
2023-03-02T10:07:16.637Z,4.30
2023-03-02T10:09:49.392Z,4.80
2023-03-02T10:12:42.170Z,5.80
2023-03-02T10:15:18.729Z,5.10
2023-03-02T10:18:04.535Z,4.90
2023-03-02T10:20:38.367Z,5.00
2023-03-02T10:23:21.234Z,6.10
2023-03-02T10:25:58.484Z,5.70
2023-03-02T10:28:34.324Z,5.70
2023-03-02T10:31:12.052Z,5.30
2023-03-02T10:33:45.138Z,6.40
2023-03-02T10:36:23.441Z,5.80
2023-03-02T10:38:57.160Z,6.10
2023-03-02T10:41:33.124Z,5.60
2023-03-02T10:44:08.380Z,5.50
2023-03-02T10:46:46.553Z,6.10
2023-03-02T10:49:31.248Z,5.60
2023-03-02T10:52:05.453Z,5.50
2023-03-02T10:54:38.424Z,6.20
2023-03-02T10:57:28.582Z,4.90
2023-03-02T11:00:06.010Z,5.60
2023-03-02T11:02:40.658Z,5.40
2023-03-02T11:05:28.875Z,6.10
2023-03-02T11:08:10.012Z,5.70
2023-03-02T11:10:52.099Z,5.20
2023-03-02T11:13:29.024Z,4.80
2023-03-02T11:16:02.400Z,4.60
2023-03-02T11:18:38.760Z,6.20
2023-03-02T11:21:16.352Z,4.90
2023-03-02T11:23:54.154Z,5.50
2023-03-02T11:26:28.028Z,4.80
2023-03-02T11:29:04.112Z,4.80
2023-03-02T11:31:42.793Z,4.30
2023-03-02T11:34:35.343Z,4.50
2023-03-02T11:37:17.437Z,4.80
2023-03-02T11:40:01.271Z,5.00
2023-03-02T11:42:35.553Z,4.80
2023-03-02T11:45:19.723Z,4.60
2023-03-02T11:48:02.610Z,4.50
2023-03-02T11:50:38.598Z,3.80
2023-03-02T11:53:15.828Z,5.00
2023-03-02T11:55:50.031Z,4.40
2023-03-02T11:58:25.165Z,4.20
2023-03-02T12:00:58.533Z,3.90
2023-03-02T12:03:42.818Z,5.30
2023-03-02T12:06:36.631Z,4.90
2023-03-02T12:09:31.390Z,4.50
2023-03-02T12:12:18.898Z,5.10
2023-03-02T12:14:56.891Z,4.80
2023-03-02T12:17:35.686Z,5.20
2023-03-02T12:20:23.980Z,4.70
2023-03-02T12:22:59.308Z,5.60
2023-03-02T12:25:40.647Z,5.30
2023-03-02T12:28:28.177Z,4.80
2023-03-02T12:31:05.968Z,4.70
2023-03-02T12:33:44.700Z,6.10
2023-03-02T12:36:20.317Z,5.30
2023-03-02T12:39:05.645Z,3.90
2023-03-02T12:41:48.764Z,4.40
2023-03-02T12:44:31.937Z,4.80
2023-03-02T12:47:04.910Z,5.50
2023-03-02T12:49:45.856Z,5.10
2023-03-02T12:52:32.291Z,4.90
2023-03-02T12:55:08.536Z,3.80
2023-03-02T12:57:50.525Z,4.60
2023-03-02T13:00:25.108Z,3.80
2023-03-02T13:03:00.300Z,4.30
2023-03-02T13:05:34.767Z,3.70
2023-03-02T13:08:13.537Z,4.20
2023-03-02T13:10:51.156Z,3.30
2023-03-02T13:13:27.171Z,3.90
2023-03-02T13:16:00.820Z,3.90
2023-03-02T13:18:34.896Z,4.60
2023-03-02T13:21:13.851Z,4.10
2023-03-02T13:23:51.920Z,5.20
2023-03-02T13:26:31.269Z,3.90
2023-03-02T13:29:06.076Z,4.20
2023-03-02T13:31:38.945Z,3.90
2023-03-02T13:34:23.487Z,4.00
2023-03-02T13:36:56.558Z,3.50
2023-03-02T13:39:32.117Z,4.20
2023-03-02T13:42:05.707Z,3.80
2023-03-02T13:44:39.415Z,3.70
2023-03-02T13:47:24.332Z,4.70
2023-03-02T13:50:07.310Z,3.40
2023-03-02T13:52:41.829Z,4.00
2023-03-02T13:55:18.109Z,3.50
2023-03-02T13:57:54.517Z,4.70
2023-03-02T14:00:30.537Z,3.90
2023-03-02T14:03:03.676Z,4.30
2023-03-02T14:05:39.487Z,4.00
2023-03-02T14:08:13.514Z,4.00
2023-03-02T14:10:46.318Z,4.30
2023-03-02T14:13:20.733Z,4.50
2023-03-02T14:15:54.671Z,4.10
2023-03-02T14:18:32.435Z,5.20
2023-03-02T14:21:05.761Z,4.10
2023-03-02T14:23:40.359Z,4.80
2023-03-02T14:26:31.442Z,4.90
2023-03-02T14:29:06.188Z,5.20
2023-03-02T14:31:40.944Z,4.70
2023-03-02T14:34:14.787Z,5.20
2023-03-02T14:36:49.715Z,4.10
2023-03-02T14:39:25.328Z,4.80
2023-03-02T14:41:58.580Z,3.80
2023-03-02T14:44:32.117Z,5.50
2023-03-02T14:47:05.344Z,4.70
2023-03-02T14:49:39.119Z,6.20
2023-03-02T14:52:17.606Z,5.50
2023-03-02T14:54:52.440Z,4.90
2023-03-02T14:57:26.867Z,5.80
2023-03-02T15:00:00.753Z,6.20
2023-03-02T15:02:34.949Z,6.20
2023-03-02T15:05:18.817Z,5.90
2023-03-02T15:07:58.775Z,6.70
2023-03-02T15:10:31.981Z,6.60
2023-03-02T15:13:05.462Z,7.40
2023-03-02T15:15:43.659Z,7.10
2023-03-02T15:18:20.173Z,6.40
2023-03-02T15:20:56.127Z,7.20
2023-03-02T15:23:29.192Z,7.30
2023-03-02T15:26:03.313Z,6.80
2023-03-02T15:28:38.105Z,7.40
2023-03-02T15:31:12.233Z,8.30
2023-03-02T15:33:46.548Z,8.70
2023-03-02T15:36:23.565Z,7.90
2023-03-02T15:38:56.526Z,7.30
2023-03-02T15:41:29.810Z,7.20
2023-03-02T15:44:02.726Z,6.80
2023-03-02T15:46:36.204Z,7.40
2023-03-02T15:49:12.955Z,6.30
2023-03-02T15:51:45.696Z,6.10
2023-03-02T15:54:22.655Z,6.80
2023-03-02T15:56:57.176Z,6.50
2023-03-02T15:59:30.877Z,7.60
2023-03-02T16:02:05.507Z,7.50
2023-03-02T16:04:38.761Z,7.70
2023-03-02T16:07:11.661Z,9.70
2023-03-02T16:09:45.627Z,7.70
2023-03-02T16:12:23.665Z,9.10
2023-03-02T16:14:56.988Z,11.50
2023-03-02T16:17:33.048Z,9.80
2023-03-02T16:20:06.833Z,10.10
2023-03-02T16:22:40.411Z,11.10
2023-03-02T16:25:13.514Z,11.00
2023-03-02T16:27:48.439Z,10.50
2023-03-02T16:30:23.800Z,9.50
2023-03-02T16:33:01.085Z,9.20
2023-03-02T16:35:34.962Z,9.10
2023-03-02T16:38:09.594Z,7.40
2023-03-02T16:40:42.729Z,8.70
2023-03-02T16:43:25.237Z,7.30
2023-03-02T16:45:58.054Z,8.00
2023-03-02T16:48:32.515Z,16.30
2023-03-02T16:51:12.370Z,34.90
2023-03-02T16:53:45.702Z,16.30
2023-03-02T16:56:19.066Z,15.10
2023-03-02T16:58:52.185Z,20.40
2023-03-02T17:01:25.431Z,20.30
2023-03-02T17:03:58.157Z,17.80
2023-03-02T17:06:32.113Z,16.30
2023-03-02T17:09:05.772Z,19.60
2023-03-02T17:11:44.566Z,19.70
2023-03-02T17:14:18.042Z,20.10
2023-03-02T17:16:50.886Z,19.40
2023-03-02T17:19:26.967Z,19.00
2023-03-02T17:22:00.886Z,17.20
2023-03-02T17:24:41.713Z,15.20
2023-03-02T17:27:24.592Z,15.00
2023-03-02T17:29:59.584Z,15.50
2023-03-02T17:32:36.573Z,14.70
2023-03-02T17:35:13.919Z,13.70
2023-03-02T17:37:49.486Z,20.90
2023-03-02T17:40:24.277Z,32.50
2023-03-02T17:42:57.895Z,20.90
2023-03-02T17:45:31.329Z,14.60
2023-03-02T17:48:04.573Z,14.70
2023-03-02T17:50:37.905Z,15.30
2023-03-02T17:53:10.653Z,14.20
2023-03-02T17:55:43.994Z,11.80
2023-03-02T17:58:19.044Z,11.60
2023-03-02T18:00:53.943Z,15.10
2023-03-02T18:03:28.188Z,13.10
2023-03-02T18:06:01.110Z,11.70
2023-03-02T18:08:34.358Z,11.00
2023-03-02T18:11:07.536Z,11.50
2023-03-02T18:13:40.438Z,10.90
2023-03-02T18:16:13.952Z,8.60
2023-03-02T18:18:47.304Z,9.30
2023-03-02T18:21:20.093Z,8.10
2023-03-02T18:23:53.191Z,10.60
2023-03-02T18:26:27.073Z,12.20
2023-03-02T18:29:00.121Z,10.70
2023-03-02T18:31:34.401Z,9.90
2023-03-02T18:34:10.007Z,9.60
2023-03-02T18:36:43.364Z,9.10
2023-03-02T18:39:16.995Z,9.30
2023-03-02T18:41:50.436Z,12.30
2023-03-02T18:44:28.199Z,11.70
2023-03-02T18:47:02.860Z,10.80
2023-03-02T18:49:35.750Z,10.40
2023-03-02T18:52:10.246Z,13.90
2023-03-02T18:54:43.981Z,13.40
2023-03-02T18:57:18.313Z,13.30
2023-03-02T18:59:51.265Z,16.40
2023-03-02T19:02:24.310Z,15.20
2023-03-02T19:04:57.012Z,15.60
2023-03-02T19:07:31.642Z,15.60
2023-03-02T19:10:05.080Z,17.40
2023-03-02T19:12:38.941Z,14.60
2023-03-02T19:15:13.978Z,14.90
2023-03-02T19:17:47.613Z,15.40
2023-03-02T19:20:23.884Z,13.10
2023-03-02T19:22:57.203Z,14.70
2023-03-02T19:25:29.959Z,16.50
2023-03-02T19:28:03.065Z,16.00
2023-03-02T19:30:41.344Z,15.70
2023-03-02T19:33:15.810Z,16.90
2023-03-02T19:35:48.697Z,15.60
2023-03-02T19:38:23.281Z,15.20
2023-03-02T19:40:57.076Z,16.70
2023-03-02T19:43:29.934Z,15.70
2023-03-02T19:46:02.940Z,16.60
2023-03-02T19:48:38.287Z,18.20
2023-03-02T19:51:12.781Z,16.80
2023-03-02T19:53:47.332Z,18.10
2023-03-02T19:56:21.054Z,17.50
2023-03-02T19:58:55.047Z,15.60
2023-03-02T20:01:30.262Z,19.30
2023-03-02T20:04:07.215Z,19.20
2023-03-02T20:06:40.559Z,19.50
2023-03-02T20:09:19.690Z,19.40
2023-03-02T20:11:54.140Z,19.60
2023-03-02T20:14:33.740Z,18.00
2023-03-02T20:17:07.236Z,15.80
2023-03-02T20:19:40.599Z,15.40
2023-03-02T20:22:13.791Z,15.60
2023-03-02T20:24:49.439Z,17.50
2023-03-02T20:27:22.618Z,19.90
2023-03-02T20:29:55.670Z,17.60
2023-03-02T20:32:28.920Z,16.90
2023-03-02T20:35:02.736Z,20.90
2023-03-02T20:37:36.475Z,17.40
2023-03-02T20:40:10.419Z,17.10
2023-03-02T20:42:46.126Z,15.80
2023-03-02T20:45:19.304Z,15.50
2023-03-02T20:47:52.529Z,16.10
2023-03-02T20:50:27.583Z,16.50
2023-03-02T20:53:00.836Z,17.60
2023-03-02T20:55:34.593Z,18.10
2023-03-02T20:58:07.395Z,17.60
2023-03-02T21:00:45.597Z,16.20
2023-03-02T21:03:19.039Z,17.30
2023-03-02T21:05:52.046Z,14.90
2023-03-02T21:08:24.958Z,16.50
2023-03-02T21:10:58.981Z,16.30
2023-03-02T21:13:32.546Z,15.30
2023-03-02T21:16:07.887Z,14.50
2023-03-02T21:18:45.853Z,14.70
2023-03-02T21:21:32.485Z,15.60
2023-03-02T21:24:12.612Z,16.00
2023-03-02T21:26:45.710Z,14.80
2023-03-02T21:29:18.469Z,14.40
2023-03-02T21:31:52.409Z,14.20
2023-03-02T21:34:26.964Z,15.00
2023-03-02T21:37:01.894Z,16.80
2023-03-02T21:39:34.913Z,14.90
2023-03-02T21:42:17.948Z,15.30
2023-03-02T21:44:50.970Z,16.50
2023-03-02T21:47:23.913Z,14.80
2023-03-02T21:49:56.980Z,15.40
2023-03-02T21:52:29.942Z,17.60
2023-03-02T21:55:02.859Z,16.40
2023-03-02T21:57:40.323Z,17.90
2023-03-02T22:00:19.947Z,16.20
2023-03-02T22:02:53.068Z,17.20
2023-03-02T22:05:27.254Z,17.60
2023-03-02T22:08:00.298Z,17.60
2023-03-02T22:10:35.494Z,17.00
2023-03-02T22:13:20.980Z,16.90
2023-03-02T22:15:59.305Z,16.70
2023-03-02T22:18:32.227Z,17.10
2023-03-02T22:21:08.417Z,17.80
2023-03-02T22:23:41.567Z,18.50
2023-03-02T22:26:17.255Z,17.60
2023-03-02T22:28:50.165Z,17.10
2023-03-02T22:31:23.608Z,16.10
2023-03-02T22:33:57.694Z,19.00
2023-03-02T22:36:30.433Z,17.10
2023-03-02T22:39:03.332Z,17.50
2023-03-02T22:41:36.346Z,18.50
2023-03-02T22:44:13.508Z,20.30
2023-03-02T22:46:48.052Z,17.40
2023-03-02T22:49:21.210Z,17.70
2023-03-02T22:51:55.532Z,15.60
2023-03-02T22:54:32.518Z,15.00
2023-03-02T22:57:07.363Z,15.90
2023-03-02T22:59:41.380Z,16.20
2023-03-02T23:02:18.914Z,21.00
2023-03-02T23:04:51.893Z,20.30
2023-03-02T23:07:25.213Z,19.70
2023-03-02T23:09:58.130Z,19.50
2023-03-02T23:12:30.977Z,18.00
2023-03-02T23:15:18.728Z,18.90
2023-03-02T23:17:51.914Z,17.10
2023-03-02T23:20:25.170Z,16.90
2023-03-02T23:22:58.256Z,17.30
2023-03-02T23:25:31.250Z,18.80
2023-03-02T23:28:04.076Z,17.20
2023-03-02T23:30:40.082Z,15.70
2023-03-02T23:33:13.772Z,18.60
2023-03-02T23:35:46.582Z,15.50
2023-03-02T23:38:19.595Z,16.30
2023-03-02T23:40:52.595Z,16.30
2023-03-02T23:43:26.970Z,16.70
2023-03-02T23:45:59.681Z,18.70
2023-03-02T23:48:34.242Z,17.40
2023-03-02T23:51:08.518Z,19.80
2023-03-02T23:53:47.467Z,19.50
2023-03-02T23:56:20.353Z,19.10
2023-03-02T23:58:53.200Z,18.50
